createdAt,value
2016-10-22T00:00:57.938Z,1001.44
2016-10-22T00:01:57.955Z,1001.45
2016-10-22T00:02:57.971Z,1001.44
2016-10-22T00:03:57.988Z,1001.45
2016-10-22T00:04:58.005Z,1001.45
2016-10-22T00:05:58.020Z,1001.48
2016-10-22T00:06:58.036Z,1001.47
2016-10-22T00:07:58.053Z,1001.5
2016-10-22T00:08:58.070Z,1001.5
2016-10-22T00:09:58.085Z,1001.49
2016-10-22T00:10:58.101Z,1001.46
2016-10-22T00:11:58.117Z,1001.48
2016-10-22T00:12:58.135Z,1001.41
2016-10-22T00:13:58.150Z,1001.47
2016-10-22T00:14:58.167Z,1001.43
2016-10-22T00:15:58.187Z,1001.45
2016-10-22T00:16:58.198Z,1001.47
2016-10-22T00:17:58.215Z,1001.51
2016-10-22T00:18:58.231Z,1001.49
2016-10-22T00:19:58.248Z,1001.49
2016-10-22T00:20:58.264Z,1001.52
2016-10-22T00:21:58.279Z,1001.5
2016-10-22T00:22:58.295Z,1001.52
2016-10-22T00:23:58.312Z,1001.45
2016-10-22T00:24:58.327Z,1001.47
2016-10-22T00:25:58.344Z,1001.47
2016-10-22T00:26:58.359Z,1001.46
2016-10-22T00:27:58.376Z,1001.47
2016-10-22T00:28:58.391Z,1001.44
2016-10-22T00:29:58.408Z,1001.45
2016-10-22T00:30:58.424Z,1001.49
2016-10-22T00:31:58.442Z,1001.45
2016-10-22T00:32:58.457Z,1001.47
2016-10-22T00:33:58.475Z,1001.47
2016-10-22T00:34:58.489Z,1001.49
2016-10-22T00:35:58.505Z,1001.44
2016-10-22T00:36:58.521Z,1001.45
2016-10-22T00:37:58.537Z,1001.42
2016-10-22T00:38:58.554Z,1001.43
2016-10-22T00:39:58.570Z,1001.43
2016-10-22T00:40:58.587Z,1001.45
2016-10-22T00:41:58.602Z,1001.42
2016-10-22T00:42:58.619Z,1001.41
2016-10-22T00:43:58.634Z,1001.43
2016-10-22T00:44:58.649Z,1001.43
2016-10-22T00:45:58.666Z,1001.43
2016-10-22T00:46:58.682Z,1001.43
2016-10-22T00:47:58.698Z,1001.41
2016-10-22T00:48:58.715Z,1001.4
2016-10-22T00:49:58.731Z,1001.4
2016-10-22T00:50:58.747Z,1001.41
2016-10-22T00:51:58.764Z,1001.38
2016-10-22T00:52:58.779Z,1001.37
2016-10-22T00:53:58.795Z,1001.35
2016-10-22T00:54:58.810Z,1001.36
2016-10-22T00:55:58.819Z,1001.37
2016-10-22T00:56:58.838Z,1001.36
2016-10-22T00:57:58.853Z,1001.36
2016-10-22T00:58:58.866Z,1001.35
2016-10-22T00:59:58.883Z,1001.33
2016-10-22T01:00:58.903Z,1001.32
2016-10-22T01:01:58.917Z,1001.32
2016-10-22T01:02:58.934Z,1001.32
2016-10-22T01:03:58.948Z,1001.33
2016-10-22T01:04:58.964Z,1001.33
2016-10-22T01:05:58.982Z,1001.29
2016-10-22T01:06:58.996Z,1001.29
2016-10-22T01:07:59.015Z,1001.3
2016-10-22T01:08:59.035Z,1001.28
2016-10-22T01:09:59.046Z,1001.28
2016-10-22T01:10:59.063Z,1001.25
2016-10-22T01:11:59.077Z,1001.28
2016-10-22T01:12:59.092Z,1001.23
2016-10-22T01:13:59.108Z,1001.28
2016-10-22T01:14:59.127Z,1001.22
2016-10-22T01:15:59.143Z,1001.22
2016-10-22T01:16:59.156Z,1001.2
2016-10-22T01:17:59.175Z,1001.22
2016-10-22T01:18:59.192Z,1001.18
2016-10-22T01:19:59.207Z,1001.2
2016-10-22T01:20:59.223Z,1001.21
2016-10-22T01:21:59.238Z,1001.21
2016-10-22T01:22:59.257Z,1001.18
2016-10-22T01:23:59.268Z,1001.18
2016-10-22T01:24:59.285Z,1001.17
2016-10-22T01:25:59.301Z,1001.14
2016-10-22T01:26:59.317Z,1001.16
2016-10-22T01:27:59.333Z,1001.16
2016-10-22T01:28:59.352Z,1001.12
2016-10-22T01:29:59.365Z,1001.12
2016-10-22T01:30:59.381Z,1001.06
2016-10-22T01:31:59.397Z,1001.08
2016-10-22T01:32:59.417Z,1001.09
2016-10-22T01:33:59.433Z,1001.1
2016-10-22T01:34:59.448Z,1001.07
2016-10-22T01:35:59.461Z,1001.08
2016-10-22T01:36:59.480Z,1001.05
2016-10-22T01:37:59.498Z,1001.05
2016-10-22T01:38:59.513Z,1001.05
2016-10-22T01:39:59.529Z,1001.06
2016-10-22T01:40:59.542Z,1001.04
2016-10-22T01:41:59.557Z,1001.02
2016-10-22T01:42:59.574Z,1001.03
2016-10-22T01:43:59.591Z,1000.99
2016-10-22T01:44:59.606Z,1001.02
2016-10-22T01:45:59.623Z,1001.03
2016-10-22T01:46:59.637Z,1001
2016-10-22T01:47:59.654Z,1000.98
2016-10-22T01:48:59.670Z,1001
2016-10-22T01:49:59.689Z,1000.97
2016-10-22T01:50:59.703Z,1000.96
2016-10-22T01:51:59.719Z,1000.94
2016-10-22T01:52:59.737Z,1000.95
2016-10-22T01:53:59.753Z,1000.93
2016-10-22T01:54:59.767Z,1000.93
2016-10-22T01:55:59.787Z,1000.92
2016-10-22T01:56:59.799Z,1000.92
2016-10-22T01:57:59.815Z,1000.91
2016-10-22T01:58:59.833Z,1000.91
2016-10-22T01:59:59.848Z,1000.94
2016-10-22T02:00:59.865Z,1000.9
2016-10-22T02:01:59.881Z,1000.86
2016-10-22T02:02:59.895Z,1000.87
2016-10-22T02:03:59.918Z,1000.91
2016-10-22T02:04:59.930Z,1000.88
2016-10-22T02:05:59.943Z,1000.91
2016-10-22T02:06:59.959Z,1000.9
2016-10-22T02:07:59.974Z,1000.88
2016-10-22T02:08:59.994Z,1000.91
2016-10-22T02:10:00.010Z,1000.89
2016-10-22T02:11:00.022Z,1000.9
2016-10-22T02:12:00.038Z,1000.87
2016-10-22T02:13:00.055Z,1000.87
2016-10-22T02:14:00.073Z,1000.84
2016-10-22T02:15:00.088Z,1000.85
2016-10-22T02:16:00.102Z,1000.85
2016-10-22T02:17:00.119Z,1000.84
2016-10-22T02:18:00.140Z,1000.86
2016-10-22T02:19:00.150Z,1000.87
2016-10-22T02:20:00.166Z,1000.87
2016-10-22T02:21:00.187Z,1000.87
2016-10-22T02:22:00.200Z,1000.86
2016-10-22T02:23:00.213Z,1000.84
2016-10-22T02:24:00.230Z,1000.81
2016-10-22T02:25:00.247Z,1000.84
2016-10-22T02:26:00.271Z,1000.86
2016-10-22T02:27:00.278Z,1000.83
2016-10-22T02:28:00.296Z,1000.84
2016-10-22T02:29:00.314Z,1000.84
2016-10-22T02:30:00.325Z,1000.86
2016-10-22T02:31:00.344Z,1000.88
2016-10-22T02:32:00.362Z,1000.84
2016-10-22T02:33:00.375Z,1000.82
2016-10-22T02:34:00.388Z,1000.81
2016-10-22T02:35:00.408Z,1000.84
2016-10-22T02:36:00.421Z,1000.84
2016-10-22T02:37:00.439Z,1000.83
2016-10-22T02:38:00.454Z,1000.84
2016-10-22T02:39:00.471Z,1000.86
2016-10-22T02:40:00.492Z,1000.81
2016-10-22T02:41:00.499Z,1000.84
2016-10-22T02:42:00.518Z,1000.84
2016-10-22T02:43:00.531Z,1000.82
2016-10-22T02:44:00.547Z,1000.84
2016-10-22T02:45:00.563Z,1000.85
2016-10-22T02:46:00.583Z,1000.85
2016-10-22T02:47:00.595Z,1000.85
2016-10-22T02:48:00.619Z,1000.84
2016-10-22T02:49:00.628Z,1000.82
2016-10-22T02:50:00.648Z,1000.85
2016-10-22T02:51:00.658Z,1000.85
2016-10-22T02:52:00.674Z,1000.84
2016-10-22T02:53:00.689Z,1000.83
2016-10-22T02:54:00.712Z,1000.83
2016-10-22T02:55:00.724Z,1000.83
2016-10-22T02:56:00.752Z,1000.86
2016-10-22T02:57:00.753Z,1000.85
2016-10-22T02:58:00.771Z,1000.83
2016-10-22T02:59:00.786Z,1000.82
2016-10-22T03:00:00.804Z,1000.83
2016-10-22T03:01:00.819Z,1000.8
2016-10-22T03:02:00.841Z,1000.83
2016-10-22T03:03:00.847Z,1000.81
2016-10-22T03:04:00.869Z,1000.8
2016-10-22T03:05:00.882Z,1000.8
2016-10-22T03:06:00.899Z,1000.82
2016-10-22T03:07:00.914Z,1000.8
2016-10-22T03:08:00.934Z,1000.83
2016-10-22T03:09:00.946Z,1000.83
2016-10-22T03:10:00.962Z,1000.8
2016-10-22T03:11:00.977Z,1000.83
2016-10-22T03:12:00.992Z,1000.8
2016-10-22T03:13:01.009Z,1000.8
2016-10-22T03:14:01.023Z,1000.79
2016-10-22T03:15:01.039Z,1000.78
2016-10-22T03:16:01.058Z,1000.79
2016-10-22T03:17:01.071Z,1000.79
2016-10-22T03:18:01.092Z,1000.76
2016-10-22T03:19:01.102Z,1000.75
2016-10-22T03:20:01.121Z,1000.76
2016-10-22T03:21:01.135Z,1000.81
2016-10-22T03:22:01.156Z,1000.75
2016-10-22T03:23:01.166Z,1000.74
2016-10-22T03:24:01.243Z,1000.76
2016-10-22T03:25:01.199Z,1000.76
2016-10-22T03:26:01.214Z,1000.74
2016-10-22T03:27:01.229Z,1000.76
2016-10-22T03:28:01.248Z,1000.73
2016-10-22T03:29:01.263Z,1000.73
2016-10-22T03:30:01.287Z,1000.73
2016-10-22T03:31:01.297Z,1000.73
2016-10-22T03:32:01.308Z,1000.7
2016-10-22T03:33:01.325Z,1000.75
2016-10-22T03:34:01.342Z,1000.75
2016-10-22T03:35:01.355Z,1000.72
2016-10-22T03:36:01.374Z,1000.71
2016-10-22T03:37:01.422Z,1000.71
2016-10-22T03:38:01.415Z,1000.73
2016-10-22T03:39:01.418Z,1000.69
2016-10-22T03:40:01.437Z,1000.66
2016-10-22T03:41:01.468Z,1000.67
2016-10-22T03:42:01.469Z,1000.7
2016-10-22T03:43:01.484Z,1000.67
2016-10-22T03:44:01.499Z,1000.66
2016-10-22T03:45:01.518Z,1000.69
2016-10-22T03:46:01.543Z,1000.71
2016-10-22T03:47:01.552Z,1000.67
2016-10-22T03:48:01.560Z,1000.66
2016-10-22T03:49:01.576Z,1000.67
2016-10-22T03:50:01.595Z,1000.66
2016-10-22T03:51:01.611Z,1000.66
2016-10-22T03:52:01.626Z,1000.69
2016-10-22T03:53:01.639Z,1000.68
2016-10-22T03:54:01.660Z,1000.66
2016-10-22T03:55:01.673Z,1000.64
2016-10-22T03:56:01.687Z,1000.68
2016-10-22T03:57:01.703Z,1000.67
2016-10-22T03:58:01.718Z,1000.66
2016-10-22T03:59:01.737Z,1000.66
2016-10-22T04:00:01.753Z,1000.6
2016-10-22T04:01:01.765Z,1000.64
2016-10-22T04:02:01.783Z,1000.62
2016-10-22T04:03:01.800Z,1000.67
2016-10-22T04:04:01.813Z,1000.66
2016-10-22T04:05:01.828Z,1000.66
2016-10-22T04:06:01.844Z,1000.63
2016-10-22T04:07:01.863Z,1000.64
2016-10-22T04:08:01.878Z,1000.62
2016-10-22T04:09:01.891Z,1000.63
2016-10-22T04:10:01.914Z,1000.64
2016-10-22T04:11:01.926Z,1000.59
2016-10-22T04:12:01.942Z,1000.62
2016-10-22T04:13:01.958Z,1000.63
2016-10-22T04:14:01.974Z,1000.61
2016-10-22T04:15:01.989Z,1000.61
2016-10-22T04:16:02.005Z,1000.59
2016-10-22T04:17:02.022Z,1000.57
2016-10-22T04:18:02.036Z,1000.58
2016-10-22T04:19:02.051Z,1000.59
2016-10-22T04:20:02.068Z,1000.59
2016-10-22T04:21:02.089Z,1000.58
2016-10-22T04:22:02.101Z,1000.56
2016-10-22T04:23:02.112Z,1000.59
2016-10-22T04:24:02.131Z,1000.59
2016-10-22T04:25:02.144Z,1000.59
2016-10-22T04:26:02.163Z,1000.6
2016-10-22T04:27:02.177Z,1000.59
2016-10-22T04:28:02.194Z,1000.57
2016-10-22T04:29:02.212Z,1000.6
2016-10-22T04:30:02.223Z,1000.59
2016-10-22T04:31:02.243Z,1000.61
2016-10-22T04:32:02.258Z,1000.61
2016-10-22T04:33:02.275Z,1000.55
2016-10-22T04:34:02.291Z,1000.6
2016-10-22T04:35:02.305Z,1000.6
2016-10-22T04:36:02.319Z,1000.56
2016-10-22T04:37:02.336Z,1000.56
2016-10-22T04:38:02.353Z,1000.58
2016-10-22T04:39:02.366Z,1000.54
2016-10-22T04:40:02.385Z,1000.54
2016-10-22T04:41:02.400Z,1000.52
2016-10-22T04:42:02.418Z,1000.53
2016-10-22T04:43:02.433Z,1000.51
2016-10-22T04:44:02.446Z,1000.54
2016-10-22T04:45:02.460Z,1000.56
2016-10-22T04:46:02.480Z,1000.58
2016-10-22T04:47:02.495Z,1000.6
2016-10-22T04:48:02.511Z,1000.6
2016-10-22T04:49:02.524Z,1000.6
2016-10-22T04:50:02.540Z,1000.64
2016-10-22T04:51:02.560Z,1000.65
2016-10-22T04:52:02.577Z,1000.61
2016-10-22T04:53:02.587Z,1000.63
2016-10-22T04:54:02.615Z,1000.64
2016-10-22T04:55:02.619Z,1000.68
2016-10-22T04:56:02.640Z,1000.65
2016-10-22T04:57:02.654Z,1000.68
2016-10-22T04:58:02.668Z,1000.69
2016-10-22T04:59:02.682Z,1000.68
2016-10-22T05:00:02.700Z,1000.66
2016-10-22T05:01:02.717Z,1000.72
2016-10-22T05:02:02.734Z,1000.68
2016-10-22T05:03:02.746Z,1000.66
2016-10-22T05:04:02.762Z,1000.66
2016-10-22T05:05:02.781Z,1000.67
2016-10-22T05:06:02.794Z,1000.65
2016-10-22T05:07:02.811Z,1000.67
2016-10-22T05:08:02.824Z,1000.66
2016-10-22T05:09:02.845Z,1000.66
2016-10-22T05:10:02.858Z,1000.69
2016-10-22T05:11:02.874Z,1000.63
2016-10-22T05:12:02.890Z,1000.66
2016-10-22T05:13:02.905Z,1000.69
2016-10-22T05:14:02.919Z,1000.64
2016-10-22T05:15:02.939Z,1000.67
2016-10-22T05:16:02.964Z,1000.67
2016-10-22T05:17:02.969Z,1000.64
2016-10-22T05:18:02.990Z,1000.66
2016-10-22T05:19:02.999Z,1000.66
2016-10-22T05:20:03.014Z,1000.67
2016-10-22T05:21:03.030Z,1000.72
2016-10-22T05:22:03.048Z,1000.67
2016-10-22T05:23:03.061Z,1000.66
2016-10-22T05:24:03.078Z,1000.66
2016-10-22T05:25:03.096Z,1000.68
2016-10-22T05:26:03.108Z,1000.7
2016-10-22T05:27:03.124Z,1000.66
2016-10-22T05:28:03.143Z,1000.7
2016-10-22T05:29:03.156Z,1000.68
2016-10-22T05:30:03.191Z,1000.66
2016-10-22T05:31:03.290Z,1000.7
2016-10-22T05:32:03.202Z,1000.71
2016-10-22T05:33:03.222Z,1000.69
2016-10-22T05:34:03.238Z,1000.75
2016-10-22T05:35:03.252Z,1000.72
2016-10-22T05:36:03.270Z,1000.7
2016-10-22T05:37:03.292Z,1000.69
2016-10-22T05:38:03.304Z,1000.71
2016-10-22T05:39:03.314Z,1000.66
2016-10-22T05:40:03.331Z,1000.71
2016-10-22T05:41:03.344Z,1000.69
2016-10-22T05:42:03.360Z,1000.69
2016-10-22T05:43:03.375Z,1000.74
2016-10-22T05:44:03.394Z,1000.73
2016-10-22T05:45:03.410Z,1000.69
2016-10-22T05:46:03.423Z,1000.75
2016-10-22T05:47:03.441Z,1000.76
2016-10-22T05:48:03.455Z,1000.73
2016-10-22T05:49:03.469Z,1000.77
2016-10-22T05:50:03.486Z,1000.75
2016-10-22T05:51:03.500Z,1000.78
2016-10-22T05:52:03.527Z,1000.72
2016-10-22T05:53:03.533Z,1000.78
2016-10-22T05:54:03.547Z,1000.77
2016-10-22T05:55:03.566Z,1000.79
2016-10-22T05:56:03.582Z,1000.76
2016-10-22T05:57:03.595Z,1000.76
2016-10-22T05:58:03.613Z,1000.79
2016-10-22T05:59:03.629Z,1000.81
2016-10-22T06:00:03.642Z,1000.84
2016-10-22T06:01:03.658Z,1000.78
2016-10-22T06:02:03.676Z,1000.83
2016-10-22T06:03:03.689Z,1000.79
2016-10-22T06:04:03.708Z,1000.8
2016-10-22T06:05:03.723Z,1000.8
2016-10-22T06:06:03.736Z,1000.76
2016-10-22T06:07:03.751Z,1000.8
2016-10-22T06:08:03.768Z,1000.77
2016-10-22T06:09:03.785Z,1000.78
2016-10-22T06:10:03.799Z,1000.79
2016-10-22T06:11:03.818Z,1000.84
2016-10-22T06:12:03.831Z,1000.84
2016-10-22T06:13:03.847Z,1000.82
2016-10-22T06:14:03.875Z,1000.86
2016-10-22T06:15:03.881Z,1000.86
2016-10-22T06:16:03.893Z,1000.85
2016-10-22T06:17:03.921Z,1000.83
2016-10-22T06:18:03.926Z,1000.85
2016-10-22T06:19:03.940Z,1000.87
2016-10-22T06:20:03.964Z,1000.86
2016-10-22T06:21:03.973Z,1000.85
2016-10-22T06:22:03.994Z,1000.84
2016-10-22T06:23:04.007Z,1000.83
2016-10-22T06:24:04.027Z,1000.88
2016-10-22T06:25:04.036Z,1000.82
2016-10-22T06:26:04.059Z,1000.86
2016-10-22T06:27:04.071Z,1000.87
2016-10-22T06:28:04.088Z,1000.85
2016-10-22T06:29:04.104Z,1000.84
2016-10-22T06:30:04.126Z,1000.87
2016-10-22T06:31:04.133Z,1000.82
2016-10-22T06:32:04.146Z,1000.83
2016-10-22T06:33:04.164Z,1000.86
2016-10-22T06:34:04.176Z,1000.91
2016-10-22T06:35:04.200Z,1000.94
2016-10-22T06:36:04.212Z,1000.9
2016-10-22T06:37:04.227Z,1000.91
2016-10-22T06:38:04.247Z,1000.92
2016-10-22T06:39:04.256Z,1000.94
2016-10-22T06:40:04.271Z,1000.94
2016-10-22T06:41:04.290Z,1000.95
2016-10-22T06:42:04.303Z,1000.91
2016-10-22T06:43:04.320Z,1000.92
2016-10-22T06:44:04.335Z,1000.98
2016-10-22T06:45:04.352Z,1000.93
2016-10-22T06:46:04.368Z,1000.93
2016-10-22T06:47:04.381Z,1000.93
2016-10-22T06:48:04.398Z,1000.96
2016-10-22T06:49:04.419Z,1000.95
2016-10-22T06:50:04.437Z,1000.95
2016-10-22T06:51:04.445Z,1000.94
2016-10-22T06:52:04.460Z,1000.95
2016-10-22T06:53:04.483Z,1000.91
2016-10-22T06:54:04.492Z,1000.94
2016-10-22T06:55:04.507Z,1000.95
2016-10-22T06:56:04.525Z,1000.92
2016-10-22T06:57:04.541Z,1000.92
2016-10-22T06:58:04.567Z,1000.93
2016-10-22T06:59:04.570Z,1000.93
2016-10-22T07:00:04.595Z,1000.92
2016-10-22T07:01:04.605Z,1000.91
2016-10-22T07:02:04.620Z,1000.93
2016-10-22T07:03:04.633Z,1000.93
2016-10-22T07:04:04.652Z,1000.92
2016-10-22T07:05:04.667Z,1000.95
2016-10-22T07:06:04.683Z,1000.92
2016-10-22T07:07:04.697Z,1000.91
2016-10-22T07:08:04.715Z,1000.92
2016-10-22T07:09:04.728Z,1000.9
2016-10-22T07:10:04.746Z,1000.92
2016-10-22T07:11:04.758Z,1000.93
2016-10-22T07:12:04.786Z,1000.88
2016-10-22T07:13:04.791Z,1000.93
2016-10-22T07:14:04.856Z,1000.9
2016-10-22T07:15:04.822Z,1000.94
2016-10-22T07:16:04.837Z,1000.87
2016-10-22T07:17:04.854Z,1000.9
2016-10-22T07:18:04.870Z,1000.92
2016-10-22T07:19:04.888Z,1000.89
2016-10-22T07:20:04.900Z,1000.91
2016-10-22T07:21:04.916Z,1000.92
2016-10-22T07:22:04.937Z,1000.96
2016-10-22T07:23:04.947Z,1000.94
2016-10-22T07:24:04.971Z,1000.94
2016-10-22T07:25:04.982Z,1000.91
2016-10-22T07:26:04.998Z,1000.91
2016-10-22T07:27:05.011Z,1000.93
2016-10-22T07:28:05.027Z,1000.96
2016-10-22T07:29:05.041Z,1000.95
2016-10-22T07:30:05.057Z,1000.98
2016-10-22T07:31:05.073Z,1000.95
2016-10-22T07:32:05.100Z,1000.95
2016-10-22T07:33:05.106Z,1000.94
2016-10-22T07:34:05.128Z,1000.96
2016-10-22T07:35:05.142Z,1000.92
2016-10-22T07:36:05.168Z,1000.98
2016-10-22T07:37:05.169Z,1000.92
2016-10-22T07:38:05.186Z,1000.95
2016-10-22T07:39:05.249Z,1000.94
2016-10-22T07:40:05.214Z,1000.95
2016-10-22T07:41:05.233Z,1000.91
2016-10-22T07:42:05.249Z,1000.94
2016-10-22T07:43:05.272Z,1000.89
2016-10-22T07:44:05.290Z,1000.88
2016-10-22T07:45:05.294Z,1000.91
2016-10-22T07:46:05.322Z,1000.9
2016-10-22T07:47:05.329Z,1000.93
2016-10-22T07:48:05.344Z,1000.9
2016-10-22T07:49:05.361Z,1000.91
2016-10-22T07:50:05.383Z,1000.92
2016-10-22T07:51:05.389Z,1000.88
2016-10-22T07:52:05.411Z,1000.86
2016-10-22T07:53:05.421Z,1000.84
2016-10-22T07:54:05.438Z,1000.87
2016-10-22T07:55:05.452Z,1000.88
2016-10-22T07:56:05.472Z,1000.83
2016-10-22T07:57:05.488Z,1000.85
2016-10-22T07:58:05.504Z,1000.8
2016-10-22T07:59:05.521Z,1000.83
2016-10-22T08:00:05.536Z,1000.83
2016-10-22T08:01:05.549Z,1000.81
2016-10-22T08:02:05.566Z,1000.78
2016-10-22T08:03:05.582Z,1000.79
2016-10-22T08:04:05.601Z,1000.76
2016-10-22T08:05:05.617Z,1000.78
2016-10-22T08:06:05.639Z,1000.76
2016-10-22T08:07:05.645Z,1000.77
2016-10-22T08:08:05.664Z,1000.75
2016-10-22T08:09:05.683Z,1000.72
2016-10-22T08:10:05.695Z,1000.72
2016-10-22T08:11:05.714Z,1000.73
2016-10-22T08:12:05.730Z,1000.74
2016-10-22T08:13:05.762Z,1000.73
2016-10-22T08:14:05.758Z,1000.7
2016-10-22T08:15:05.776Z,1000.73
2016-10-22T08:16:05.791Z,1000.76
2016-10-22T08:17:05.811Z,1000.72
2016-10-22T08:18:05.822Z,1000.72
2016-10-22T08:19:05.839Z,1000.75
2016-10-22T08:20:05.860Z,1000.71
2016-10-22T08:21:05.889Z,1000.71
2016-10-22T08:22:05.887Z,1000.72
2016-10-22T08:23:05.906Z,1000.68
2016-10-22T08:24:05.920Z,1000.75
2016-10-22T08:25:05.935Z,1000.7
2016-10-22T08:26:05.957Z,1000.66
2016-10-22T08:27:05.973Z,1000.64
2016-10-22T08:28:05.983Z,1000.68
2016-10-22T08:29:06.002Z,1000.71
2016-10-22T08:30:06.024Z,1000.66
2016-10-22T08:31:06.035Z,1000.69
2016-10-22T08:32:06.052Z,1000.7
2016-10-22T08:33:06.064Z,1000.69
2016-10-22T08:34:06.087Z,1000.68
2016-10-22T08:35:06.123Z,1000.69
2016-10-22T08:36:06.114Z,1000.69
2016-10-22T08:37:06.127Z,1000.66
2016-10-22T08:38:06.152Z,1000.63
2016-10-22T08:39:06.164Z,1000.66
2016-10-22T08:40:06.182Z,1000.64
2016-10-22T08:41:06.198Z,1000.62
2016-10-22T08:42:06.208Z,1000.63
2016-10-22T08:43:06.228Z,1000.65
2016-10-22T08:44:06.259Z,1000.65
2016-10-22T08:45:06.260Z,1000.63
2016-10-22T08:46:06.288Z,1000.63
2016-10-22T08:47:06.291Z,1000.63
2016-10-22T08:48:06.319Z,1000.63
2016-10-22T08:49:06.325Z,1000.6
2016-10-22T08:50:06.338Z,1000.62
2016-10-22T08:51:06.358Z,1000.59
2016-10-22T08:52:06.377Z,1000.58
2016-10-22T08:53:06.399Z,1000.61
2016-10-22T08:54:06.411Z,1000.6
2016-10-22T08:55:06.423Z,1000.6
2016-10-22T08:56:06.451Z,1000.61
2016-10-22T08:57:06.456Z,1000.57
2016-10-22T08:58:06.470Z,1000.6
2016-10-22T08:59:06.685Z,1000.59
2016-10-22T09:00:06.505Z,1000.58
2016-10-22T09:01:06.528Z,1000.62
2016-10-22T09:02:06.541Z,1000.58
2016-10-22T09:03:06.553Z,1000.6
2016-10-22T09:04:06.583Z,1000.6
2016-10-22T09:05:06.588Z,1000.6
2016-10-22T09:06:06.601Z,1000.66
2016-10-22T09:07:06.616Z,1000.63
2016-10-22T09:08:06.635Z,1000.61
2016-10-22T09:09:06.651Z,1000.63
2016-10-22T09:10:06.666Z,1000.57
2016-10-22T09:11:06.681Z,1000.61
2016-10-22T09:12:06.703Z,1000.62
2016-10-22T09:13:06.716Z,1000.62
2016-10-22T09:14:06.731Z,1000.62
2016-10-22T09:15:06.745Z,1000.66
2016-10-22T09:16:06.778Z,1000.65
2016-10-22T09:17:06.799Z,1000.66
2016-10-22T09:18:06.802Z,1000.65
2016-10-22T09:19:06.816Z,1000.65
2016-10-22T09:20:06.831Z,1000.65
2016-10-22T09:21:06.855Z,1000.67
2016-10-22T09:22:06.874Z,1000.7
2016-10-22T09:23:06.878Z,1000.69
2016-10-22T09:24:06.894Z,1000.74
2016-10-22T09:25:06.910Z,1000.7
2016-10-22T09:26:06.926Z,1000.71
2016-10-22T09:27:06.945Z,1000.69
2016-10-22T09:28:06.967Z,1000.72
2016-10-22T09:29:06.978Z,1000.73
2016-10-22T09:30:06.996Z,1000.75
2016-10-22T09:31:07.012Z,1000.72
2016-10-22T09:32:07.025Z,1000.75
2016-10-22T09:33:07.045Z,1000.73
2016-10-22T09:34:07.070Z,1000.76
2016-10-22T09:35:07.076Z,1000.72
2016-10-22T09:36:07.094Z,1000.74
2016-10-22T09:37:07.110Z,1000.73
2016-10-22T09:38:07.131Z,1000.72
2016-10-22T09:39:07.143Z,1000.7
2016-10-22T09:40:07.158Z,1000.74
2016-10-22T09:41:07.177Z,1000.73
2016-10-22T09:42:07.194Z,1000.73
2016-10-22T09:43:07.224Z,1000.74
2016-10-22T09:44:07.227Z,1000.72
2016-10-22T09:45:07.241Z,1000.75
2016-10-22T09:46:07.260Z,1000.72
2016-10-22T09:47:07.274Z,1000.74
2016-10-22T09:48:07.291Z,1000.76
2016-10-22T09:49:07.309Z,1000.74
2016-10-22T09:50:07.324Z,1000.72
2016-10-22T09:51:07.341Z,1000.78
2016-10-22T09:52:07.357Z,1000.73
2016-10-22T09:53:07.471Z,1000.79
2016-10-22T09:54:07.390Z,1000.77
2016-10-22T09:55:07.406Z,1000.77
2016-10-22T09:56:07.422Z,1000.75
2016-10-22T09:57:07.442Z,1000.7
2016-10-22T09:58:07.459Z,1000.76
2016-10-22T09:59:07.472Z,1000.77
2016-10-22T10:00:07.491Z,1000.76
2016-10-22T10:01:07.509Z,1000.7
2016-10-22T10:02:07.522Z,1000.7
2016-10-22T10:03:07.538Z,1000.78
2016-10-22T10:04:07.562Z,1000.71
2016-10-22T10:05:07.572Z,1000.69
2016-10-22T10:06:07.591Z,1000.72
2016-10-22T10:07:07.605Z,1000.7
2016-10-22T10:08:07.623Z,1000.74
2016-10-22T10:09:07.639Z,1000.72
2016-10-22T10:10:07.655Z,1000.72
2016-10-22T10:11:07.675Z,1000.72
2016-10-22T10:12:07.691Z,1000.73
2016-10-22T10:13:07.708Z,1000.7
2016-10-22T10:14:07.771Z,1000.72
2016-10-22T10:15:07.741Z,1000.73
2016-10-22T10:16:07.755Z,1000.73
2016-10-22T10:17:07.775Z,1000.75
2016-10-22T10:18:07.795Z,1000.69
2016-10-22T10:19:07.815Z,1000.72
2016-10-22T10:20:07.822Z,1000.68
2016-10-22T10:21:07.845Z,1000.69
2016-10-22T10:22:07.855Z,1000.71
2016-10-22T10:23:07.876Z,1000.72
2016-10-22T10:24:07.893Z,1000.73
2016-10-22T10:25:07.909Z,1000.75
2016-10-22T10:26:07.924Z,1000.72
2016-10-22T10:27:07.941Z,1000.73
2016-10-22T10:28:07.959Z,1000.71
2016-10-22T10:29:08.026Z,1000.74
2016-10-22T10:30:07.993Z,1000.78
2016-10-22T10:31:08.010Z,1000.73
2016-10-22T10:32:08.024Z,1000.71
2016-10-22T10:33:08.041Z,1000.71
2016-10-22T10:34:08.067Z,1000.73
2016-10-22T10:35:08.078Z,1000.69
2016-10-22T10:36:08.093Z,1000.69
2016-10-22T10:37:08.109Z,1000.69
2016-10-22T10:38:08.135Z,1000.73
2016-10-22T10:39:08.145Z,1000.71
2016-10-22T10:40:08.162Z,1000.69
2016-10-22T10:41:08.177Z,1000.73
2016-10-22T10:42:08.199Z,1000.71
2016-10-22T10:43:08.210Z,1000.75
2016-10-22T10:44:08.228Z,1000.69
2016-10-22T10:45:08.248Z,1000.69
2016-10-22T10:46:08.265Z,1000.77
2016-10-22T10:47:08.279Z,1000.69
2016-10-22T10:48:08.303Z,1000.74
2016-10-22T10:49:08.316Z,1000.77
2016-10-22T10:50:08.333Z,1000.74
2016-10-22T10:51:08.348Z,1000.75
2016-10-22T10:52:08.367Z,1000.7
2016-10-22T10:53:08.382Z,1000.7
2016-10-22T10:54:08.409Z,1000.68
2016-10-22T10:55:08.416Z,1000.71
2016-10-22T10:56:08.434Z,1000.73
2016-10-22T10:57:08.450Z,1000.75
2016-10-22T10:58:08.469Z,1000.71
2016-10-22T10:59:08.568Z,1000.77
2016-10-22T11:00:08.503Z,1000.78
2016-10-22T11:01:08.521Z,1000.77
2016-10-22T11:02:08.536Z,1000.77
2016-10-22T11:03:08.570Z,1000.78
2016-10-22T11:04:08.570Z,1000.75
2016-10-22T11:05:08.588Z,1000.83
2016-10-22T11:06:08.623Z,1000.81
2016-10-22T11:07:08.625Z,1000.78
2016-10-22T11:08:08.639Z,1000.79
2016-10-22T11:09:08.660Z,1000.79
2016-10-22T11:10:08.677Z,1000.8
2016-10-22T11:11:08.697Z,1000.83
2016-10-22T11:12:08.715Z,1000.79
2016-10-22T11:13:08.725Z,1000.83
2016-10-22T11:14:08.746Z,1000.83
2016-10-22T11:15:08.763Z,1000.79
2016-10-22T11:16:08.787Z,1000.81
2016-10-22T11:17:08.797Z,1000.8
2016-10-22T11:18:08.815Z,1000.82
2016-10-22T11:19:08.832Z,1000.79
2016-10-22T11:20:08.849Z,1000.84
2016-10-22T11:21:08.866Z,1000.8
2016-10-22T11:22:08.885Z,1000.81
2016-10-22T11:23:08.897Z,1000.79
2016-10-22T11:24:08.915Z,1000.8
2016-10-22T11:25:08.939Z,1000.83
2016-10-22T11:26:08.952Z,1000.78
2016-10-22T11:27:08.966Z,1000.81
2016-10-22T11:28:08.986Z,1000.8
2016-10-22T11:29:09.002Z,1000.82
2016-10-22T11:30:09.020Z,1000.77
2016-10-22T11:31:09.035Z,1000.81
2016-10-22T11:32:09.055Z,1000.86
2016-10-22T11:33:09.069Z,1000.86
2016-10-22T11:34:09.087Z,1000.84
2016-10-22T11:35:09.107Z,1000.81
2016-10-22T11:36:09.131Z,1000.84
2016-10-22T11:37:09.138Z,1000.87
2016-10-22T11:38:09.163Z,1000.87
2016-10-22T11:39:09.173Z,1000.9
2016-10-22T11:40:09.191Z,1000.89
2016-10-22T11:41:09.209Z,1000.88
2016-10-22T11:42:09.227Z,1000.85
2016-10-22T11:43:09.241Z,1000.87
2016-10-22T11:44:09.259Z,1000.84
2016-10-22T11:45:09.278Z,1000.87
2016-10-22T11:46:09.294Z,1000.86
2016-10-22T11:47:09.310Z,1000.82
2016-10-22T11:48:09.328Z,1000.85
2016-10-22T11:49:09.347Z,1000.83
2016-10-22T11:50:09.364Z,1000.85
2016-10-22T11:51:09.380Z,1000.82
2016-10-22T11:52:09.400Z,1000.83
2016-10-22T11:53:09.413Z,1000.84
2016-10-22T11:54:09.433Z,1000.82
2016-10-22T11:55:09.451Z,1000.85
2016-10-22T11:56:09.467Z,1000.81
2016-10-22T11:57:09.482Z,1000.83
2016-10-22T11:58:09.507Z,1000.86
2016-10-22T11:59:09.548Z,1000.84
2016-10-22T12:00:09.569Z,1000.8
2016-10-22T12:01:09.562Z,1000.85
2016-10-22T12:02:09.589Z,1000.84
2016-10-22T12:03:09.587Z,1000.85
2016-10-22T12:04:09.602Z,1000.84
2016-10-22T12:05:09.622Z,1000.84
2016-10-22T12:06:09.639Z,1000.81
2016-10-22T12:07:09.653Z,1000.88
2016-10-22T12:08:09.673Z,1000.88
2016-10-22T12:09:09.688Z,1000.82